الصفحة الرئيسية
METAR-TAF:

METAR-TAF

مطار :

Sainte Marie, مدغشقر

دائرة عرض: 17-05S, خط طول: 049-49E, ارتفاع: 2 متر

مراقبة الطقس الحالي

تاريخ ووقت الإصدار 22ساعات و 7 دقيقة قبل الساعة 03:00UTC
ريح 4 عقدة من الشمال الشرقي
درجة الحرارة 21°درجة مئوية
الرطوبة 88%
ضغط 1013 hPa
الرؤية 10 كم أو أكثر
غيوم قليلة على ارتفاع 2000 قدم

METAR: FMMS 180300Z 04004KT 9999 FEW020 21/19 Q1013

زمن: 04:07 (01:07 UTC)

توقعات

تاريخ ووقت الإصدار 2ساعات و 7 دقيقة قبل الساعة 23:00UTC
التوقعات صالحة من19 الساعة 00 UTC إلى 19 الساعة 24 UTC
ريح 22 عقدة من الجنوب تتزايد حتى 35 عقدة
الرؤية 10 كم أو أكثر
غيوم قليلة على ارتفاع 1700 قدم
غيوم مفككة على ارتفاع 3300 قدم
نظرية الاحتمالات 40% :
مؤقت
من 19 الساعة 00 UTC إلى 19 الساعة 12 UTC
الرؤية: 4000 متر
زخات من المطر
أصبح
من 19 الساعة 13 UTC إلى 19 الساعة 15 UTC
ريح 12 عقدة من الجنوب

TAF: FMMS 182300Z 1900/1924 18022G35KT 9999 FEW017 BKN033 PROB40 TEMPO 1900/1912 4000 SHRA BECMG 1913/1915 18012KT

أرصاد الطقس والتوقعات من أكثر من 4000 مطار (تقارير الطقس للمطار METAR والتنبؤ بالطقس بالمطارTAF).

المحطات المتاحة هي النقط الصفراء والحمراء على الخريطة.

حرك المؤشر فوق النقطة لمعرفة اسم المحطة.

ثم انقر لمعرفة أرصاد وتوقعات الطقس.

لتغيير الخارطة: اضغط على الأزرار الخضراء مع رمز الصليب الأسود للتكبير. على الزر الأخضر مع شرطة للتصغير، أو على الأسهم الخضراء للخرائط المجاورة.


METAR-TAF: